Terminal Aerodrome Forecast
Issued by NWS Upton, NY

Current Version | Previous Version | Text Only | Print | Product List | Glossary On
Versions: 1 2 3 4 5 6 7 8 9 10 11 12 13 14 15 16 17 18 19 20 21 22 23 24 25
000
FTUS41 KOKX 310800 AAA
TAFISP
TAF AMD
KISP 310836Z 3109/0106 21007KT P6SM SCT015 BKN025
      TEMPO 3109/3110 BKN015
     FM311000 21007KT 6SM BR BKN015
     FM311500 20012G18KT P6SM SCT020 SCT040 BKN200
     FM010000 21010KT 4SM SHRA BR SCT040 BKN080 PROB30 0100/0106
      TSRA BKN040CB=

USA.gov is the U.S. government's official web portal to all federal, state and local government web resources and services.